LICT

Vincenzo Florio Trapani-Birgi Airport

Trapani, Italy
TAF LICT 251700Z 2518/2603 18010KT 9999 SCT020 BECMG 2518/2520 09012KT
Issued Valid From Valid To
Sep-25 @ 17:00 UTC
(52 minutes ago)
Sep-25 @ 18:00 UTC
(in 8 minutes)
Sep-26 @ 03:00 UTC
(in 9 hours)
Sep-25 @ 18:00 to Sep-26 @ 03:00
TAF LICT 251700Z 2518/2603 18010KT 9999 SCT020
Wind Visibility Clouds
180° at 10 knots 10,000+ meters
  • Scattered at 2,000' AGL
Becoming Sep-25 @ 18:00 to Sep-26 @ 03:00
BECMG 2518/2520 09012KT
Wind Visibility Clouds
90° at 12 knots 10,000+ meters
  • Scattered at 2,000' AGL
TAF LICT 251700Z 2518/2603 18010KT 9999 SCT020 BECMG 2518/2520 09012KT
Issued Sep-25 @ 17:00 UTC
(52 minutes ago)
Valid From Sep-25 @ 18:00 UTC
(in 8 minutes)
Valid To Sep-26 @ 03:00 UTC
(in 9 hours)
Sep-25 @ 18:00 - Sep-26 @ 03:00
Wind Visibility
180° at 10 knots 10,000+ meters
Clouds
  • Scattered at 2,000' AGL
Becoming Sep-25 @ 18:00 - Sep-26 @ 03:00
Wind Visibility
90° at 12 knots 10,000+ meters
Clouds
  • Scattered at 2,000' AGL